Detall de PIREP

Printer-friendly versionPDF version

[2011/03/04 19:15:00]
Flight IATA:CT1020
Pilot Number:042
Company ICAO:CAT
Aircraft Type:B738/F
PAX:0
Departing Airport: KBFI
Destination Airport: KEWR
Alternate Airport:KBOS
Online: VATSIM
Route:NORMY J12 BLUIT J90 MWH J90 ABR J70 GEP DLL J34 CRL J584 SLT
Flight Level:F330
No Slew and time accel
No pause
Crash detect
Detect pilot in Cockpit between each 30 and 45 minutes
19:15 Zero fuel Weight: 118701 Lbs, Fuel Weight: 46056 Lbs
19:15 VATSIM:KBFI 041853Z 00000KT 10SM SCT050 BKN100 05/M01 A3016 RMK AO2 PRESFR SLP212 T00501006
19:15 VATSIM:KEWR 041851Z 13013G20KT 9SM FEW033 SCT150 BKN250 05/M04 A3065 RMK AO2 SLP378 T00501044
19:15 VOICE CATALONIAN/BOEING TRANSPORT
19:33 Parking Brakes off
19:37 Take-off
19:37 Take off Weight: 164065 Lbs
19:37 Wind: 000 @ 000 Knots Heading: 149
19:37 POS N47 31 12 W122 17 38
19:37 Gear Up: 177 Knots
19:37 Flaps:4 at 177 Knots
19:37 Flaps:3 at 181 Knots
19:38 Flaps:2 at 182 Knots
19:38 Flaps:1 at 198 Knots
19:40 Flaps:0 at 205 Knots
19:52 Wind:262@012 Knots Heading: 104 Ground Speed: 450 Knots Altitude 28448 ft
19:58 TOC
19:58 Fuel Weight: 40733 Lb
20:07 Wind:285@081 Knots Heading: 093 Ground Speed: 527 Knots Altitude 33369 ft
20:22 Wind:292@086 Knots Heading: 095 Ground Speed: 532 Knots Altitude 33356 ft
20:37 Wind:300@066 Knots Heading: 087 Ground Speed: 508 Knots Altitude 33270 ft
20:52 Wind:292@047 Knots Heading: 092 Ground Speed: 490 Knots Altitude 33267 ft
21:07 Wind:263@042 Knots Heading: 099 Ground Speed: 473 Knots Altitude 33333 ft
21:22 Wind:260@041 Knots Heading: 102 Ground Speed: 469 Knots Altitude 33375 ft
21:37 Wind:257@043 Knots Heading: 104 Ground Speed: 470 Knots Altitude 33428 ft
21:52 Wind:247@051 Knots Heading: 108 Ground Speed: 466 Knots Altitude 35367 ft
22:07 Wind:243@060 Knots Heading: 113 Ground Speed: 474 Knots Altitude 35255 ft
22:22 Wind:246@062 Knots Heading: 114 Ground Speed: 483 Knots Altitude 35141 ft
22:37 Wind:251@072 Knots Heading: 118 Ground Speed: 493 Knots Altitude 35082 ft
22:52 Wind:260@064 Knots Heading: 102 Ground Speed: 501 Knots Altitude 35059 ft
23:07 Wind:264@071 Knots Heading: 121 Ground Speed: 502 Knots Altitude 35127 ft
23:22 Wind:267@067 Knots Heading: 098 Ground Speed: 507 Knots Altitude 35265 ft
23:37 Wind:280@069 Knots Heading: 101 Ground Speed: 512 Knots Altitude 35406 ft
23:39 TOD
23:39 Fuel Weight: 19180 Lb
23:52 Wind:277@037 Knots Heading: 111 Ground Speed: 337 Knots Altitude 15741 ft
00:01 Flaps:1 at 209 Knots
00:07 Wind:209@026 Knots Heading: 079 Ground Speed: 225 Knots Altitude 4967 ft
00:07 Flaps:2 at 197 Knots
00:07 Flaps:1 at 205 Knots
00:09 Flaps:2 at 211 Knots
00:12 Flaps:3 at 193 Knots
00:13 Flaps:4 at 176 Knots
00:13 Gear Down: 176 Knots
00:13 Flaps:5 at 175 Knots
00:13 Flaps:6 at 174 Knots
00:13 Flaps:7 at 170 Knots
00:16 TouchDown:Rate -399 ft/min Speed: 147 Knots
00:17 VATSIM:KEWR 042351Z 14009G15KT 10SM FEW025 SCT040 SCT150 BKN220 04/M01 A3061 RMK AO2 SLP364 T00441011 10061 20044 55005
00:17 Land
00:17 Wind:142@017 Knots
00:17 Heading: 202
00:17 Flight Duration: 04:40
00:17 Landing Weight: 135813 Lbs
00:17 POS N40 41 11 W074 10 06
00:17 Parking brakes on
00:17 Block to Block Duration: 04:44
00:17 Final Fuel: 17070 Lbls
00:17 Spent Fuel: 28985 Lbls
00:17 Flight Length: 1844 NM
00:17 TOD Land Length: 131 NM

Exportar CSV

Powered by Drupal - Modified by Danger4k